Time;durP1;ratioP1;P1;durP2;ratioP2;P2;SDS_P1;SDS_P2;PMS_P1;PMS_P2;Temp;Humidity;BMP_temperature;BMP_pressure;BME280_temperature;BME280_humidity;BME280_pressure;Samples;Min_cycle;Max_cycle;Signal;HPM_P1;HPM_P2
2022/03/22 00:01:21;;;;;;;36.97;21.30;;;4.00;64.20;;;;;;5017663;28;20193;-86
2022/03/22 00:03:47;;;;;;;32.73;20.67;;;4.00;64.30;;;;;;5035325;28;20215;-86
2022/03/22 00:06:13;;;;;;;29.80;20.87;;;3.90;64.50;;;;;;5035431;28;20668;-86
2022/03/22 00:08:38;;;;;;;30.87;20.93;;;3.90;64.90;;;;;;5035250;28;20165;-86
2022/03/22 00:11:04;;;;;;;27.33;21.23;;;3.90;64.90;;;;;;5035523;28;20271;-85
2022/03/22 00:13:29;;;;;;;31.27;21.90;;;3.80;65.00;;;;;;5035170;28;20177;-86
2022/03/22 00:15:56;;;;;;;36.17;21.40;;;3.80;65.20;;;;;;5035043;28;20180;-85
2022/03/22 00:18:22;;;;;;;28.07;20.77;;;3.80;65.50;;;;;;5035083;28;20252;-85
2022/03/22 00:20:49;;;;;;;30.47;22.03;;;3.70;65.50;;;;;;5017135;28;20203;-85
2022/03/22 00:23:15;;;;;;;26.90;19.60;;;3.70;65.40;;;;;;5034971;28;20166;-85
2022/03/22 00:25:41;;;;;;;28.37;20.83;;;3.70;65.50;;;;;;5035066;28;20295;-85
2022/03/22 00:28:07;;;;;;;29.07;20.07;;;3.70;65.70;;;;;;5017373;28;20670;-86
2022/03/22 00:30:33;;;;;;;26.47;20.23;;;3.60;65.70;;;;;;5017023;28;20576;-86
2022/03/22 00:33:02;;;;;;;29.13;20.07;;;3.60;65.80;;;;;;5035090;28;20177;-85
2022/03/22 00:35:30;;;;;;;33.60;20.50;;;3.60;65.60;;;;;;5016936;28;20253;-85
2022/03/22 00:37:57;;;;;;;27.37;19.20;;;3.60;65.80;;;;;;5034715;28;20169;-85
2022/03/22 00:40:25;;;;;;;28.93;20.63;;;3.50;66.00;;;;;;5016905;28;20207;-85
2022/03/22 00:42:53;;;;;;;26.87;18.70;;;3.50;65.70;;;;;;5034639;28;20255;-88
2022/03/22 00:45:24;;;;;;;30.47;20.10;;;3.50;65.70;;;;;;5034792;28;20176;-85
2022/03/22 00:47:51;;;;;;;31.47;20.77;;;3.50;65.60;;;;;;5017042;28;20215;-85
2022/03/22 00:50:19;;;;;;;27.00;18.40;;;3.50;65.80;;;;;;5016764;28;20193;-86
2022/03/22 00:52:46;;;;;;;28.90;19.70;;;3.60;65.70;;;;;;5016591;28;20176;-85
2022/03/22 00:55:12;;;;;;;34.93;19.80;;;3.60;65.30;;;;;;5016445;28;20183;-85
2022/03/22 00:57:39;;;;;;;26.40;19.40;;;3.60;65.40;;;;;;5016531;28;20646;-85
2022/03/22 01:00:08;;;;;;;26.00;19.07;;;3.60;65.40;;;;;;5015772;28;20750;-87
2022/03/22 01:02:39;;;;;;;24.40;18.13;;;3.70;65.50;;;;;;5016372;28;20200;-85
2022/03/22 01:05:07;;;;;;;25.90;18.63;;;3.70;65.60;;;;;;5016491;28;20171;-85
2022/03/22 01:07:37;;;;;;;29.20;20.20;;;3.70;65.60;;;;;;5016334;28;20219;-85
2022/03/22 01:10:06;;;;;;;29.20;18.70;;;3.60;66.00;;;;;;5016272;28;20196;-85
2022/03/22 01:12:34;;;;;;;31.23;17.77;;;3.70;65.70;;;;;;5016247;28;20259;-85
2022/03/22 01:14:59;;;;;;;24.77;18.33;;;3.70;65.40;;;;;;5016217;28;20177;-86
2022/03/22 01:17:25;;;;;;;25.00;18.33;;;3.70;65.20;;;;;;5016218;28;20267;-85
2022/03/22 01:19:50;;;;;;;23.23;18.43;;;3.70;65.10;;;;;;5016122;28;20196;-85
2022/03/22 01:22:16;;;;;;;21.77;17.60;;;3.70;65.00;;;;;;5016054;28;20200;-85
2022/03/22 01:24:43;;;;;;;24.10;17.37;;;3.70;64.90;;;;;;5016168;28;20668;-85
2022/03/22 01:27:09;;;;;;;25.17;17.67;;;3.70;64.90;;;;;;5015947;28;20182;-85
2022/03/22 01:29:34;;;;;;;26.70;18.07;;;3.70;64.70;;;;;;5015946;28;20266;-85
2022/03/22 01:32:00;;;;;;;24.50;17.93;;;3.70;64.70;;;;;;5015989;28;20599;-85
2022/03/22 01:34:25;;;;;;;26.47;17.80;;;3.60;64.70;;;;;;5015882;28;20268;-85
2022/03/22 01:36:51;;;;;;;30.70;17.53;;;3.60;64.80;;;;;;5017220;28;20271;-85
2022/03/22 01:39:17;;;;;;;25.93;18.93;;;3.50;64.90;;;;;;5015862;28;20197;-85
2022/03/22 01:41:42;;;;;;;25.97;18.57;;;3.50;65.00;;;;;;5016103;28;20682;-86
2022/03/22 01:44:08;;;;;;;27.03;18.07;;;3.50;65.10;;;;;;5033613;28;20168;-85
2022/03/22 01:46:36;;;;;;;26.20;18.50;;;3.50;65.40;;;;;;5033331;28;20180;-85
2022/03/22 01:49:02;;;;;;;24.30;18.40;;;3.50;65.50;;;;;;5033437;28;20251;-85
2022/03/22 01:51:31;;;;;;;27.20;18.97;;;3.40;65.60;;;;;;5015876;28;20264;-85
2022/03/22 01:53:57;;;;;;;25.47;18.33;;;3.40;65.60;;;;;;5033249;28;20260;-85
2022/03/22 01:56:23;;;;;;;27.00;18.70;;;3.40;65.60;;;;;;5033277;28;20188;-85
2022/03/22 01:58:49;;;;;;;26.77;17.53;;;3.30;65.40;;;;;;5015488;28;20534;-85
2022/03/22 02:06:45;;;;;;;28.07;17.23;;;3.40;65.40;;;;;;5033749;28;20195;-85
2022/03/22 02:09:11;;;;;;;23.90;17.93;;;3.40;65.50;;;;;;5016104;28;20176;-85
2022/03/22 02:11:38;;;;;;;21.87;16.80;;;3.30;65.60;;;;;;5032034;28;20311;-85
2022/03/22 02:14:04;;;;;;;26.03;17.83;;;3.30;65.70;;;;;;5015362;28;20720;-85
2022/03/22 02:16:31;;;;;;;24.50;18.70;;;3.30;65.80;;;;;;5015255;28;20223;-85
2022/03/22 02:18:57;;;;;;;23.10;17.40;;;3.30;65.70;;;;;;5016010;28;20183;-85
2022/03/22 02:21:27;;;;;;;25.63;17.70;;;3.30;65.80;;;;;;5015200;28;20204;-85
2022/03/22 02:23:57;;;;;;;31.73;17.33;;;3.30;65.70;;;;;;5015146;28;20172;-85
2022/03/22 02:26:25;;;;;;;23.47;17.50;;;3.30;65.80;;;;;;5032904;28;20550;-86
2022/03/22 02:28:53;;;;;;;23.17;17.00;;;3.30;65.80;;;;;;5032833;28;20172;-85
2022/03/22 02:31:20;;;;;;;25.37;17.90;;;3.30;66.00;;;;;;5015367;28;20189;-85
2022/03/22 02:33:45;;;;;;;23.07;17.83;;;3.20;66.00;;;;;;5032857;28;20704;-85
2022/03/22 02:36:11;;;;;;;26.93;16.73;;;3.30;66.00;;;;;;5015084;28;20181;-85
2022/03/22 02:38:37;;;;;;;24.00;17.63;;;3.20;66.00;;;;;;5015058;28;20177;-85
2022/03/22 02:41:03;;;;;;;23.90;17.90;;;3.20;66.00;;;;;;5014989;28;20239;-85
2022/03/22 02:43:29;;;;;;;25.30;17.63;;;3.20;65.90;;;;;;5032994;28;20196;-85
2022/03/22 02:45:54;;;;;;;27.80;17.30;;;3.10;66.20;;;;;;5015016;28;20176;-85
2022/03/22 02:48:20;;;;;;;22.67;17.33;;;3.10;66.40;;;;;;5032769;28;20693;-85
2022/03/22 02:50:46;;;;;;;25.63;17.97;;;3.10;66.30;;;;;;5032548;28;20729;-85
2022/03/22 02:53:11;;;;;;;24.13;17.07;;;3.10;66.20;;;;;;5014908;28;20184;-85
2022/03/22 02:55:37;;;;;;;22.53;17.87;;;3.10;66.10;;;;;;5014955;28;20176;-85
2022/03/22 02:58:03;;;;;;;28.73;17.77;;;3.10;66.00;;;;;;5014875;28;20181;-85
2022/03/22 03:00:29;;;;;;;24.57;16.97;;;3.00;66.00;;;;;;5014697;28;20223;-85
2022/03/22 03:02:55;;;;;;;23.20;16.97;;;3.00;65.80;;;;;;5014771;28;20177;-85
2022/03/22 03:05:22;;;;;;;25.10;16.33;;;3.00;65.70;;;;;;5032554;28;20223;-85
2022/03/22 03:07:48;;;;;;;24.73;17.83;;;3.00;65.60;;;;;;5014797;28;20172;-85
2022/03/22 03:10:14;;;;;;;24.80;17.00;;;2.90;65.50;;;;;;5032451;28;20740;-85
2022/03/22 03:12:40;;;;;;;25.57;16.93;;;2.90;65.50;;;;;;5032436;28;20176;-85
2022/03/22 03:15:08;;;;;;;21.83;16.93;;;2.80;65.40;;;;;;5032763;28;20543;-85
2022/03/22 03:17:34;;;;;;;27.40;16.83;;;2.80;65.40;;;;;;5014807;28;20734;-85
2022/03/22 03:20:00;;;;;;;24.03;17.03;;;2.80;65.40;;;;;;5014622;28;20289;-85
2022/03/22 03:22:25;;;;;;;22.83;16.27;;;2.80;65.60;;;;;;5032881;28;20197;-85
2022/03/22 03:24:51;;;;;;;26.07;16.90;;;2.80;65.80;;;;;;5019035;28;20177;-85
2022/03/22 03:27:17;;;;;;;22.83;15.80;;;2.80;65.90;;;;;;5018334;28;20657;-85
2022/03/22 03:29:43;;;;;;;25.70;17.27;;;2.80;66.10;;;;;;5035930;28;20211;-85
2022/03/22 03:32:08;;;;;;;21.27;16.47;;;2.70;66.60;;;;;;5018439;28;20670;-85
2022/03/22 03:34:34;;;;;;;20.60;16.77;;;2.60;67.50;;;;;;5018138;28;20181;-85
2022/03/22 03:37:00;;;;;;;24.43;17.83;;;2.60;67.80;;;;;;5035780;28;20184;-85
2022/03/22 03:39:26;;;;;;;24.13;16.60;;;2.60;67.60;;;;;;5035974;28;20567;-85
2022/03/22 03:41:54;;;;;;;22.07;16.90;;;2.60;67.50;;;;;;5017936;28;20189;-85
2022/03/22 03:47:14;;;;;;;22.57;17.27;;;2.50;67.60;;;;;;5035661;28;20236;-85
2022/03/22 03:49:48;;;;;;;22.83;17.07;;;2.50;67.70;;;;;;5017841;28;20637;-85
2022/03/22 03:52:20;;;;;;;20.97;16.33;;;2.50;67.70;;;;;;5035417;28;20186;-85
2022/03/22 03:54:46;;;;;;;25.70;16.10;;;2.50;67.70;;;;;;5035565;28;20211;-85
2022/03/22 03:57:13;;;;;;;22.97;16.43;;;2.50;67.60;;;;;;5017775;28;20176;-85
2022/03/22 03:59:39;;;;;;;21.17;15.90;;;2.40;67.90;;;;;;5035416;28;20315;-85
2022/03/22 04:02:08;;;;;;;22.57;16.30;;;2.40;68.40;;;;;;5067202;22;20228;-91
2022/03/22 04:04:35;;;;;;;23.97;16.87;;;2.30;68.60;;;;;;5026489;28;20175;-92
2022/03/22 04:07:01;;;;;;;25.20;18.17;;;2.30;68.70;;;;;;5027165;28;20183;-92
2022/03/22 04:09:27;;;;;;;25.90;18.07;;;2.30;68.90;;;;;;5028271;28;20332;-91
2022/03/22 04:11:53;;;;;;;22.97;16.23;;;2.30;69.00;;;;;;5027919;28;20212;-92
2022/03/22 04:14:19;;;;;;;30.17;17.63;;;2.30;69.10;;;;;;5026932;28;20229;-92
2022/03/22 04:16:46;;;;;;;22.87;17.20;;;2.30;69.20;;;;;;5026746;28;20173;-92
2022/03/22 04:19:12;;;;;;;23.90;17.47;;;2.30;69.20;;;;;;5026128;28;20188;-94
2022/03/22 04:21:38;;;;;;;21.77;16.17;;;2.30;69.20;;;;;;5044659;28;20211;-92
2022/03/22 04:24:09;;;;;;;23.63;16.73;;;2.30;69.40;;;;;;5045159;28;20201;-91
2022/03/22 04:26:42;;;;;;;24.47;15.67;;;2.30;69.20;;;;;;5028492;28;20174;-92
2022/03/22 04:34:39;;;;;;;27.60;19.30;;;2.20;69.00;;;;;;5044534;28;20191;-92
2022/03/22 04:37:06;;;;;;;27.83;17.00;;;2.20;69.20;;;;;;5045789;28;20179;-93
2022/03/22 04:39:33;;;;;;;23.27;16.20;;;2.20;69.20;;;;;;5028327;28;20297;-93
2022/03/22 04:41:59;;;;;;;25.03;17.90;;;2.20;69.10;;;;;;5027746;28;20224;-92
2022/03/22 04:44:29;;;;;;;28.97;18.37;;;2.10;69.10;;;;;;5027325;28;20563;-93
2022/03/22 04:46:56;;;;;;;24.57;17.30;;;2.10;69.00;;;;;;5028014;28;20262;-92
2022/03/22 04:49:22;;;;;;;26.10;19.17;;;2.00;68.90;;;;;;5045050;28;20172;-93
2022/03/22 04:57:16;;;;;;;23.47;18.17;;;2.00;68.70;;;;;;5045097;28;20170;-93
2022/03/22 04:59:43;;;;;;;28.43;16.93;;;2.00;68.50;;;;;;5025931;28;20573;-93
2022/03/22 05:02:10;;;;;;;24.60;17.40;;;2.00;68.40;;;;;;5025462;28;20262;-93
2022/03/22 05:04:36;;;;;;;25.27;17.83;;;2.00;68.30;;;;;;5025370;28;20681;-93
2022/03/22 05:07:02;;;;;;;21.80;17.23;;;1.90;68.60;;;;;;5024878;28;20177;-92
2022/03/22 05:09:30;;;;;;;23.83;16.67;;;2.00;68.60;;;;;;5025068;28;20172;-92
2022/03/22 05:11:57;;;;;;;21.03;16.63;;;2.00;68.60;;;;;;5024928;28;20199;-92
2022/03/22 05:14:22;;;;;;;24.37;17.07;;;1.90;68.60;;;;;;5025265;28;20176;-91
2022/03/22 05:16:48;;;;;;;26.10;18.40;;;1.90;68.60;;;;;;5024951;28;20202;-92
2022/03/22 05:19:14;;;;;;;23.70;17.47;;;1.90;68.80;;;;;;5025158;28;20182;-93
2022/03/22 05:21:40;;;;;;;28.50;18.43;;;1.90;68.90;;;;;;5024728;28;20210;-93
2022/03/22 05:24:07;;;;;;;32.43;18.07;;;1.90;69.20;;;;;;5026344;28;20181;-93
2022/03/22 05:26:33;;;;;;;35.07;19.00;;;1.80;70.00;;;;;;5024564;28;20179;-90
2022/03/22 05:28:58;;;;;;;24.47;18.17;;;1.80;70.70;;;;;;5022173;28;20192;-92
2022/03/22 05:31:24;;;;;;;33.93;19.43;;;1.70;71.00;;;;;;5023725;28;20254;-94
2022/03/22 05:33:50;;;;;;;23.33;18.13;;;1.70;71.20;;;;;;5023737;28;20179;-92
2022/03/22 05:36:16;;;;;;;22.97;17.37;;;1.70;71.10;;;;;;5024354;28;20661;-92
2022/03/22 05:38:42;;;;;;;23.70;17.90;;;1.80;71.00;;;;;;5023666;28;20189;-91
2022/03/22 05:41:08;;;;;;;28.23;19.70;;;1.80;71.00;;;;;;5041085;28;20206;-92
2022/03/22 05:43:35;;;;;;;30.80;19.53;;;1.80;71.10;;;;;;5022829;28;20190;-93
2022/03/22 05:46:04;;;;;;;29.07;19.60;;;1.90;71.50;;;;;;5023111;28;20242;-93
2022/03/22 05:48:30;;;;;;;30.90;18.47;;;2.00;71.30;;;;;;5023609;28;20581;-92
2022/03/22 05:50:56;;;;;;;28.50;19.77;;;2.10;71.10;;;;;;5022519;28;20275;-92
2022/03/22 05:53:22;;;;;;;29.17;18.47;;;2.20;71.00;;;;;;5023359;28;20180;-93
2022/03/22 05:55:48;;;;;;;27.30;18.40;;;2.20;70.90;;;;;;5023112;28;20180;-94
2022/03/22 05:58:14;;;;;;;28.50;19.37;;;2.20;71.00;;;;;;5024178;28;20271;-92
2022/03/22 06:00:40;;;;;;;27.40;17.90;;;2.20;71.00;;;;;;5023549;28;20214;-92
2022/03/22 06:03:06;;;;;;;28.93;18.50;;;2.20;71.00;;;;;;5039818;28;20166;-92
2022/03/22 06:05:32;;;;;;;28.80;19.00;;;2.20;71.00;;;;;;5020263;28;20274;-92
2022/03/22 06:07:59;;;;;;;27.70;19.23;;;2.20;70.90;;;;;;5016179;28;20177;-92
2022/03/22 06:10:25;;;;;;;27.60;18.93;;;2.20;71.00;;;;;;5017991;28;20187;-88
2022/03/22 06:12:53;;;;;;;30.27;19.67;;;2.30;71.10;;;;;;5017770;28;20276;-91
2022/03/22 06:15:20;;;;;;;25.23;18.83;;;2.30;71.30;;;;;;5018923;28;20187;-92
2022/03/22 06:17:56;;;;;;;23.77;18.07;;;2.30;71.20;;;;;;5023684;28;20244;-92
2022/03/22 06:20:26;;;;;;;25.43;19.03;;;2.40;71.40;;;;;;5020105;28;20187;-91
2022/03/22 06:22:52;;;;;;;25.30;18.70;;;2.50;71.40;;;;;;5017267;28;20211;-93
2022/03/22 06:25:19;;;;;;;30.37;18.40;;;2.50;71.30;;;;;;5017672;28;20186;-92
2022/03/22 06:27:47;;;;;;;30.13;19.23;;;2.60;71.30;;;;;;5017470;28;20186;-91
2022/03/22 06:30:15;;;;;;;27.13;19.53;;;2.60;71.20;;;;;;5017615;28;20176;-90
2022/03/22 06:32:48;;;;;;;30.43;19.90;;;2.70;71.00;;;;;;5018048;28;20248;-90
2022/03/22 06:35:19;;;;;;;38.50;21.47;;;2.80;71.20;;;;;;5017735;28;20172;-92
2022/03/22 06:37:46;;;;;;;32.97;20.23;;;2.90;71.50;;;;;;5017720;28;20258;-90
2022/03/22 06:40:13;;;;;;;39.47;20.23;;;3.00;71.50;;;;;;5017568;28;20174;-90
2022/03/22 06:42:40;;;;;;;40.13;19.57;;;3.10;71.50;;;;;;5018052;28;20196;-91
2022/03/22 06:45:06;;;;;;;31.27;19.60;;;3.10;70.70;;;;;;5035506;28;20285;-91
2022/03/22 06:47:33;;;;;;;47.00;19.70;;;3.30;70.10;;;;;;5018001;28;20169;-92
2022/03/22 06:49:59;;;;;;;40.63;19.70;;;3.40;70.80;;;;;;5017738;28;20175;-92
2022/03/22 06:52:26;;;;;;;31.80;20.30;;;3.40;70.70;;;;;;5018096;28;20208;-91
2022/03/22 06:54:51;;;;;;;29.07;19.60;;;3.50;70.60;;;;;;5018071;28;20208;-90
2022/03/22 06:57:17;;;;;;;33.27;20.30;;;3.50;71.00;;;;;;5017606;28;20537;-89
2022/03/22 06:59:42;;;;;;;44.07;22.40;;;3.70;71.50;;;;;;5021845;28;20638;-90
2022/03/22 07:02:09;;;;;;;34.63;20.73;;;3.80;72.10;;;;;;5022220;28;20278;-92
2022/03/22 07:04:34;;;;;;;35.10;20.37;;;3.80;72.50;;;;;;5020732;28;20177;-91
2022/03/22 07:07:01;;;;;;;33.57;20.87;;;4.00;73.30;;;;;;5020309;28;20184;-92
2022/03/22 07:09:26;;;;;;;30.57;21.77;;;4.20;73.70;;;;;;5019932;28;20177;-90
2022/03/22 07:11:52;;;;;;;25.97;20.03;;;4.30;74.40;;;;;;5018894;28;20717;-89
2022/03/22 07:14:23;;;;;;;31.80;20.60;;;4.50;73.60;;;;;;5037212;28;20180;-91
2022/03/22 07:16:48;;;;;;;29.17;21.13;;;4.60;72.70;;;;;;5020045;28;20177;-91
2022/03/22 07:19:15;;;;;;;24.37;19.40;;;4.80;72.00;;;;;;5037842;28;20185;-90
2022/03/22 07:21:44;;;;;;;24.13;18.97;;;4.80;71.60;;;;;;5020430;28;20208;-90
2022/03/22 07:24:11;;;;;;;30.37;20.23;;;4.90;70.90;;;;;;5019881;28;20223;-91
2022/03/22 07:26:38;;;;;;;26.67;19.17;;;5.10;69.30;;;;;;5021713;28;20248;-91
2022/03/22 07:29:04;;;;;;;32.83;18.17;;;5.20;68.00;;;;;;5021157;28;20178;-90
2022/03/22 07:31:30;;;;;;;25.07;18.70;;;5.40;67.10;;;;;;5021143;28;20238;-91
2022/03/22 07:33:56;;;;;;;32.97;18.00;;;5.50;66.30;;;;;;5021121;28;20189;-91
2022/03/22 07:36:22;;;;;;;27.17;19.77;;;5.70;66.50;;;;;;5021489;28;20184;-91
2022/03/22 07:38:48;;;;;;;28.50;18.40;;;5.80;66.60;;;;;;5021573;28;20177;-90
2022/03/22 07:41:14;;;;;;;32.87;18.90;;;5.90;65.50;;;;;;5020999;28;20586;-91
2022/03/22 07:43:41;;;;;;;25.23;16.67;;;6.10;65.20;;;;;;5021789;28;20178;-90
2022/03/22 07:46:07;;;;;;;26.10;18.43;;;6.20;63.80;;;;;;5020859;28;20559;-91
2022/03/22 07:48:33;;;;;;;41.93;18.60;;;6.40;63.40;;;;;;5021945;28;20529;-91
2022/03/22 07:53:44;;;;;;;25.67;18.13;;;6.60;64.40;;;;;;5037861;28;20166;-91
2022/03/22 07:56:10;;;;;;;30.60;18.17;;;6.80;62.80;;;;;;5020377;28;20230;-90
2022/03/22 07:58:35;;;;;;;22.10;17.57;;;6.90;62.40;;;;;;5020369;28;20180;-90
2022/03/22 08:01:01;;;;;;;24.57;17.43;;;7.00;62.10;;;;;;5020093;28;20747;-90
2022/03/22 08:03:26;;;;;;;24.03;18.20;;;7.20;61.90;;;;;;5037848;28;20268;-92
2022/03/22 08:05:52;;;;;;;37.17;19.53;;;7.30;61.20;;;;;;5022115;28;20185;-92
2022/03/22 08:08:18;;;;;;;35.23;18.30;;;7.40;61.80;;;;;;5038342;28;20172;-91
2022/03/22 08:10:45;;;;;;;29.97;17.20;;;7.60;60.70;;;;;;5019071;28;20331;-90
2022/03/22 08:13:11;;;;;;;26.47;18.13;;;7.70;59.40;;;;;;5018131;28;20340;-91
2022/03/22 08:15:38;;;;;;;25.87;17.80;;;7.80;58.80;;;;;;5018977;28;20177;-90
2022/03/22 08:18:04;;;;;;;28.33;18.47;;;8.00;58.90;;;;;;5017630;28;20235;-91
2022/03/22 08:20:30;;;;;;;26.27;16.80;;;8.20;59.30;;;;;;5018386;28;20307;-91
2022/03/22 08:23:03;;;;;;;25.33;16.87;;;8.30;57.00;;;;;;5020768;28;20232;-90
2022/03/22 08:25:31;;;;;;;36.57;17.60;;;8.40;57.10;;;;;;5018729;28;20189;-90
2022/03/22 08:28:00;;;;;;;24.23;16.30;;;8.50;55.50;;;;;;5018310;28;20272;-91
2022/03/22 08:30:26;;;;;;;27.80;17.00;;;8.60;53.60;;;;;;5018237;28;20191;-88
2022/03/22 08:32:54;;;;;;;24.93;17.87;;;8.80;56.20;;;;;;5018262;28;20176;-89
2022/03/22 08:35:22;;;;;;;24.03;17.50;;;9.00;56.00;;;;;;5018184;28;20254;-90
2022/03/22 08:37:47;;;;;;;25.10;17.50;;;9.00;56.10;;;;;;5017508;28;20589;-90
2022/03/22 08:40:14;;;;;;;28.60;19.03;;;9.00;56.20;;;;;;5020434;28;20218;-91
2022/03/22 08:42:45;;;;;;;24.20;16.57;;;9.10;55.00;;;;;;5018215;28;20204;-92
2022/03/22 08:45:12;;;;;;;27.57;16.27;;;9.20;53.40;;;;;;5017794;28;20263;-90
2022/03/22 08:47:40;;;;;;;24.00;16.60;;;9.30;54.00;;;;;;5017532;28;20263;-89
2022/03/22 08:50:09;;;;;;;24.87;17.57;;;9.40;53.30;;;;;;5018428;28;20263;-91
2022/03/22 08:52:35;;;;;;;30.07;17.73;;;9.70;54.30;;;;;;5025182;28;20181;-92
2022/03/22 08:55:01;;;;;;;25.90;17.63;;;9.80;54.80;;;;;;5025714;28;20265;-89
2022/03/22 08:57:26;;;;;;;24.60;17.57;;;9.90;54.00;;;;;;5022640;28;20197;-91
2022/03/22 08:59:52;;;;;;;27.70;17.83;;;10.00;51.90;;;;;;5045631;28;20173;-91
2022/03/22 09:02:18;;;;;;;26.13;16.87;;;10.10;52.80;;;;;;5040540;28;20223;-90
2022/03/22 09:07:27;;;;;;;23.13;16.57;;;10.30;52.40;;;;;;5035615;28;20274;-90
2022/03/22 09:09:53;;;;;;;29.50;16.87;;;10.40;51.80;;;;;;5019806;28;20193;-88
2022/03/22 09:12:18;;;;;;;22.70;16.17;;;10.50;51.10;;;;;;5018490;28;20204;-90
2022/03/22 09:14:44;;;;;;;24.10;17.57;;;10.60;51.80;;;;;;5035251;28;20177;-90
2022/03/22 09:17:10;;;;;;;24.87;16.60;;;10.70;51.20;;;;;;5039354;28;20243;-89
2022/03/22 09:19:36;;;;;;;23.43;15.87;;;10.80;51.30;;;;;;5038002;28;20525;-90
2022/03/22 09:22:03;;;;;;;22.17;17.00;;;11.00;48.80;;;;;;5037387;28;20196;-86
2022/03/22 09:24:29;;;;;;;21.87;15.73;;;11.10;49.60;;;;;;5020509;28;20233;-91
2022/03/22 09:26:54;;;;;;;26.80;16.43;;;11.30;49.20;;;;;;5035476;28;20211;-90
2022/03/22 09:29:20;;;;;;;22.47;15.43;;;11.50;46.80;;;;;;5034393;28;20172;-90
2022/03/22 09:31:46;;;;;;;24.43;16.33;;;11.60;46.20;;;;;;5034112;28;20192;-90
2022/03/22 09:34:13;;;;;;;21.67;16.43;;;11.70;47.30;;;;;;5016210;28;20172;-90
2022/03/22 09:36:38;;;;;;;21.03;15.30;;;11.90;47.30;;;;;;5016193;28;20183;-90
2022/03/22 09:39:05;;;;;;;20.43;16.00;;;12.10;46.90;;;;;;5016797;28;20176;-90
2022/03/22 09:41:32;;;;;;;18.87;14.87;;;12.30;45.70;;;;;;5033702;28;20381;-90
2022/03/22 09:43:57;;;;;;;22.77;16.00;;;12.30;44.30;;;;;;5016997;28;20173;-90
2022/03/22 09:46:23;;;;;;;26.43;16.30;;;12.30;44.00;;;;;;5016208;28;20673;-91
2022/03/22 09:48:49;;;;;;;23.50;15.77;;;12.60;44.30;;;;;;5033704;28;20255;-90
2022/03/22 09:54:03;;;;;;;23.90;16.93;;;12.70;43.70;;;;;;5033632;28;20172;-90
2022/03/22 09:56:32;;;;;;;22.93;17.10;;;12.80;44.70;;;;;;5015753;28;20234;-90
2022/03/22 09:59:03;;;;;;;21.30;16.43;;;13.00;43.10;;;;;;5016644;28;20234;-90
2022/03/22 10:01:29;;;;;;;27.03;17.17;;;13.20;43.10;;;;;;5040992;22;20230;-90
2022/03/22 10:04:00;;;;;;;22.33;15.80;;;13.20;42.20;;;;;;5015722;28;20263;-89
2022/03/22 10:06:30;;;;;;;20.83;16.33;;;13.30;41.60;;;;;;5015631;28;20173;-91
2022/03/22 10:08:56;;;;;;;23.33;16.83;;;13.40;41.30;;;;;;5016165;28;20263;-90
2022/03/22 10:11:22;;;;;;;30.10;21.03;;;13.40;39.30;;;;;;5015734;28;20196;-90
2022/03/22 10:13:55;;;;;;;31.77;21.90;;;13.60;40.00;;;;;;5015530;28;20550;-90
2022/03/22 10:16:21;;;;;;;30.20;22.40;;;13.80;40.30;;;;;;5015756;28;20204;-90
2022/03/22 10:18:48;;;;;;;35.30;23.47;;;13.90;38.60;;;;;;5015769;28;20183;-90
2022/03/22 10:21:13;;;;;;;35.77;23.57;;;14.00;38.40;;;;;;5015717;28;20212;-91
2022/03/22 10:23:49;;;;;;;36.70;24.83;;;14.00;39.30;;;;;;5033230;28;20259;-91
2022/03/22 10:26:15;;;;;;;37.50;25.83;;;14.00;39.10;;;;;;5016242;28;20180;-90
2022/03/22 10:28:52;;;;;;;41.67;26.47;;;14.20;39.60;;;;;;5015723;28;20172;-91
2022/03/22 10:31:17;;;;;;;39.90;27.27;;;14.20;39.90;;;;;;5033299;28;20209;-91
2022/03/22 10:33:53;;;;;;;39.30;27.47;;;14.40;40.20;;;;;;5018684;28;20211;-90
2022/03/22 10:36:21;;;;;;;31.93;25.10;;;14.60;40.30;;;;;;5019512;28;20180;-90
2022/03/22 10:39:01;;;;;;;34.43;23.73;;;14.60;38.90;;;;;;5019579;28;20176;-90
2022/03/22 10:41:31;;;;;;;34.20;21.37;;;14.80;40.90;;;;;;5019537;28;20761;-90
2022/03/22 10:44:10;;;;;;;36.97;23.80;;;14.70;37.90;;;;;;5019762;28;20191;-90
2022/03/22 10:46:42;;;;;;;35.00;22.43;;;14.80;39.00;;;;;;5019366;28;20642;-91
2022/03/22 10:49:10;;;;;;;28.37;19.57;;;14.90;39.70;;;;;;5037520;28;20639;-90
2022/03/22 10:51:44;;;;;;;28.47;19.60;;;15.00;39.50;;;;;;5019618;28;20200;-90
2022/03/22 10:54:12;;;;;;;28.90;19.00;;;15.10;38.40;;;;;;5020168;28;20591;-90
2022/03/22 10:56:54;;;;;;;25.80;17.90;;;15.20;39.20;;;;;;5019677;28;20291;-91
2022/03/22 10:59:23;;;;;;;25.60;18.53;;;15.30;38.70;;;;;;5019784;28;20176;-91
2022/03/22 11:01:49;;;;;;;24.95;18.45;;;15.50;39.00;;;;;;5018784;28;20212;-90
2022/03/22 11:04:16;;;;;;;25.67;18.77;;;15.60;38.50;;;;;;5019441;28;20641;-89
2022/03/22 11:06:46;;;;;;;25.93;19.53;;;15.50;39.90;;;;;;5019017;28;20219;-90
2022/03/22 11:09:14;;;;;;;26.60;19.83;;;15.40;38.10;;;;;;5019825;28;20204;-90
2022/03/22 11:11:40;;;;;;;24.10;18.88;;;15.60;38.40;;;;;;5018892;28;20205;-90
2022/03/22 11:14:05;;;;;;;31.10;19.52;;;15.70;37.30;;;;;;5018808;28;20185;-91
2022/03/22 11:16:32;;;;;;;38.87;19.63;;;15.80;38.20;;;;;;5019028;28;20177;-91
2022/03/22 11:19:00;;;;;;;36.83;19.00;;;15.90;37.50;;;;;;5019234;28;20201;-90
2022/03/22 11:21:27;;;;;;;23.50;19.65;;;16.00;38.10;;;;;;5018614;28;20705;-90
2022/03/22 11:24:07;;;;;;;32.65;19.58;;;16.30;38.30;;;;;;5036560;28;20176;-90
2022/03/22 11:26:42;;;;;;;23.98;18.70;;;16.20;37.00;;;;;;5018869;28;20169;-91
2022/03/22 11:29:10;;;;;;;23.58;18.48;;;16.50;37.20;;;;;;5019079;28;20636;-90
2022/03/22 11:31:36;;;;;;;29.25;19.88;;;16.50;36.40;;;;;;5018652;28;20207;-89
2022/03/22 11:34:12;;;;;;;25.52;19.55;;;16.60;37.00;;;;;;5018670;28;20210;-90
2022/03/22 11:36:53;;;;;;;31.58;19.60;;;16.60;36.00;;;;;;5018610;28;20227;-91
2022/03/22 11:42:18;;;;;;;28.20;19.77;;;16.90;37.20;;;;;;5036634;28;20211;-90
2022/03/22 11:44:57;;;;;;;33.35;20.95;;;17.10;37.70;;;;;;5017997;28;20268;-91
2022/03/22 11:47:23;;;;;;;30.52;21.52;;;17.00;37.80;;;;;;5036333;28;20595;-90
2022/03/22 11:50:00;;;;;;;29.05;19.67;;;17.10;35.90;;;;;;5018596;28;20546;-90
2022/03/22 11:52:32;;;;;;;23.90;18.65;;;17.10;34.90;;;;;;5018391;28;20670;-90
2022/03/22 11:55:00;;;;;;;29.75;19.35;;;17.00;35.30;;;;;;5018289;28;20177;-90
2022/03/22 11:57:27;;;;;;;26.80;17.80;;;17.10;35.80;;;;;;5018316;28;20183;-90
2022/03/22 11:59:54;;;;;;;31.65;18.40;;;17.10;36.00;;;;;;5018071;28;20622;-90
2022/03/22 12:02:27;;;;;;;23.92;17.23;;;17.20;35.00;;;;;;5035514;28;20209;-90
2022/03/22 12:04:57;;;;;;;21.73;16.73;;;17.20;35.90;;;;;;5018700;28;20255;-89
2022/03/22 12:07:30;;;;;;;23.50;18.95;;;17.20;34.20;;;;;;5018294;28;20168;-91
2022/03/22 12:10:12;;;;;;;24.35;17.77;;;17.30;34.90;;;;;;5018296;28;20188;-90
2022/03/22 12:12:40;;;;;;;30.05;18.40;;;17.50;33.60;;;;;;5018356;28;20196;-91
2022/03/22 12:15:08;;;;;;;31.25;18.60;;;17.60;33.00;;;;;;5018031;28;20184;-90
2022/03/22 12:17:34;;;;;;;30.05;20.33;;;17.80;33.50;;;;;;5017873;28;20217;-90
2022/03/22 12:20:03;;;;;;;28.85;21.83;;;17.80;34.10;;;;;;5018080;28;20710;-90
2022/03/22 12:22:30;;;;;;;29.75;21.88;;;18.00;35.30;;;;;;5035407;28;20232;-91
2022/03/22 12:25:00;;;;;;;26.08;20.77;;;18.00;33.30;;;;;;5018062;28;20548;-90
2022/03/22 12:27:26;;;;;;;33.35;19.83;;;18.00;33.40;;;;;;5017679;28;20639;-90
2022/03/22 12:29:54;;;;;;;27.00;20.40;;;18.10;34.50;;;;;;5018664;28;20225;-90
2022/03/22 12:32:21;;;;;;;31.38;21.05;;;18.10;32.70;;;;;;5018050;28;20685;-90
2022/03/22 12:34:48;;;;;;;28.60;19.92;;;18.20;33.30;;;;;;5017860;28;20180;-90
2022/03/22 12:37:15;;;;;;;30.15;22.55;;;18.30;32.90;;;;;;5017677;28;20185;-90
2022/03/22 12:39:44;;;;;;;34.28;19.33;;;18.40;33.80;;;;;;5017707;28;20180;-90
2022/03/22 12:42:11;;;;;;;26.67;19.85;;;18.50;33.90;;;;;;5017419;28;20201;-89
2022/03/22 12:44:37;;;;;;;29.58;20.02;;;18.60;34.30;;;;;;5035335;28;20542;-90
2022/03/22 12:47:05;;;;;;;29.90;19.85;;;18.60;35.20;;;;;;5017576;28;20176;-90
2022/03/22 12:49:36;;;;;;;31.20;20.38;;;18.60;33.00;;;;;;5018075;28;20558;-90
2022/03/22 12:52:02;;;;;;;23.55;18.42;;;18.70;33.80;;;;;;5017370;28;20231;-90
2022/03/22 12:54:33;;;;;;;33.75;22.13;;;18.70;33.30;;;;;;5017167;28;20184;-89
2022/03/22 12:57:01;;;;;;;32.13;20.13;;;18.80;35.90;;;;;;5016828;28;20195;-90
2022/03/22 12:59:27;;;;;;;30.83;18.85;;;18.90;36.00;;;;;;5017157;28;20204;-90
2022/03/22 13:01:56;;;;;;;25.33;18.48;;;19.10;34.90;;;;;;5017392;28;20216;-91
2022/03/22 13:04:23;;;;;;;22.98;18.02;;;19.00;33.80;;;;;;5017208;28;20263;-90